createdAt,value
2018-09-25T00:01:37.183Z,83.70
2018-09-25T00:04:11.668Z,83.80
2018-09-25T00:06:45.896Z,84.30
2018-09-25T00:09:19.931Z,84.30
2018-09-25T00:11:53.907Z,83.80
2018-09-25T00:14:27.848Z,84.00
2018-09-25T00:17:02.016Z,83.90
2018-09-25T00:19:36.389Z,84.40
2018-09-25T00:22:10.414Z,84.10
2018-09-25T00:24:44.527Z,84.10
2018-09-25T00:27:18.475Z,84.10
2018-09-25T00:29:52.549Z,84.30
2018-09-25T00:32:26.535Z,84.50
2018-09-25T00:35:00.506Z,84.50
2018-09-25T00:37:34.450Z,84.50
2018-09-25T00:40:08.598Z,84.70
2018-09-25T00:42:42.605Z,85.00
2018-09-25T00:45:16.811Z,87.40
2018-09-25T00:47:51.037Z,86.10
2018-09-25T00:50:24.996Z,84.90
2018-09-25T00:52:58.936Z,84.80
2018-09-25T00:55:33.060Z,85.30
2018-09-25T00:58:07.129Z,86.40
2018-09-25T01:00:41.251Z,85.50
2018-09-25T01:03:15.199Z,84.90
2018-09-25T01:05:49.312Z,84.80
2018-09-25T01:08:23.424Z,84.50
2018-09-25T01:10:57.434Z,84.40
2018-09-25T01:13:31.257Z,84.50
2018-09-25T01:16:05.299Z,84.80
2018-09-25T01:18:39.427Z,85.00
2018-09-25T01:21:13.605Z,85.00
2018-09-25T01:23:47.681Z,85.60
2018-09-25T01:26:21.675Z,85.00
2018-09-25T01:28:55.785Z,84.90
2018-09-25T01:31:29.662Z,85.00
2018-09-25T01:34:03.844Z,85.80
2018-09-25T01:36:37.714Z,85.80
2018-09-25T01:39:13.451Z,85.80
2018-09-25T01:41:47.424Z,85.70
2018-09-25T01:44:21.313Z,85.50
2018-09-25T01:46:56.567Z,85.10
2018-09-25T01:49:30.735Z,85.30
2018-09-25T01:52:04.832Z,85.90
2018-09-25T01:54:39.334Z,86.00
2018-09-25T01:57:13.306Z,85.90
2018-09-25T01:59:47.198Z,85.70
2018-09-25T02:02:21.055Z,85.70
2018-09-25T02:04:55.582Z,85.50
2018-09-25T02:07:29.649Z,85.90
2018-09-25T02:10:03.592Z,86.20
2018-09-25T02:12:37.622Z,85.90
2018-09-25T02:15:11.680Z,85.80
2018-09-25T02:17:45.868Z,85.30
2018-09-25T02:20:19.847Z,85.50
2018-09-25T02:22:53.936Z,85.60
2018-09-25T02:25:27.896Z,85.90
2018-09-25T02:28:02.079Z,85.90
2018-09-25T02:30:36.235Z,86.70
2018-09-25T02:33:10.612Z,87.10
2018-09-25T02:35:44.531Z,87.60
2018-09-25T02:38:18.368Z,87.80
2018-09-25T02:40:52.554Z,86.60
2018-09-25T02:43:26.462Z,86.20
2018-09-25T02:46:00.468Z,86.00
2018-09-25T02:48:38.331Z,86.10
2018-09-25T02:51:12.344Z,86.00
2018-09-25T02:53:46.695Z,85.80
2018-09-25T02:56:20.522Z,86.10
2018-09-25T02:58:54.717Z,86.50
2018-09-25T03:01:28.476Z,86.70
2018-09-25T03:04:02.587Z,86.30
2018-09-25T03:06:36.650Z,85.90
2018-09-25T03:09:13.822Z,85.70
2018-09-25T03:11:47.754Z,85.60
2018-09-25T03:14:21.670Z,85.50
2018-09-25T03:16:55.867Z,85.60
2018-09-25T03:19:30.164Z,85.70
2018-09-25T03:22:09.011Z,85.80
2018-09-25T03:24:43.134Z,85.80
2018-09-25T03:27:17.291Z,86.00
2018-09-25T03:29:51.399Z,86.90
2018-09-25T03:32:27.107Z,87.00
2018-09-25T03:35:01.267Z,87.10
2018-09-25T03:37:35.334Z,86.60
2018-09-25T03:40:09.652Z,86.30
2018-09-25T03:42:43.970Z,86.30
2018-09-25T03:45:18.130Z,86.00
2018-09-25T03:47:52.411Z,86.40
2018-09-25T03:50:28.978Z,86.40
2018-09-25T03:53:02.987Z,86.00
2018-09-25T03:55:37.019Z,85.80
2018-09-25T03:58:10.754Z,86.30
2018-09-25T04:00:44.723Z,86.10
2018-09-25T04:03:18.719Z,86.10
2018-09-25T04:05:52.838Z,85.80
2018-09-25T04:08:28.185Z,86.00
2018-09-25T04:11:01.996Z,85.90
2018-09-25T04:13:36.203Z,85.80
2018-09-25T04:16:10.636Z,85.90
2018-09-25T04:18:45.249Z,86.00
2018-09-25T04:21:19.470Z,86.00
2018-09-25T04:23:53.592Z,86.00
2018-09-25T04:26:27.945Z,86.30
2018-09-25T04:29:01.896Z,86.10
2018-09-25T04:31:35.775Z,86.10
2018-09-25T04:34:09.933Z,86.10
2018-09-25T04:36:43.855Z,86.30
2018-09-25T04:39:17.954Z,86.40
2018-09-25T04:41:52.081Z,86.90
2018-09-25T04:44:26.097Z,86.80
2018-09-25T04:46:59.988Z,87.10
2018-09-25T04:49:33.812Z,87.10
2018-09-25T04:52:07.826Z,86.90
2018-09-25T04:54:41.737Z,86.90
2018-09-25T04:57:15.583Z,86.70
2018-09-25T04:59:49.539Z,87.00
2018-09-25T05:02:23.721Z,86.40
2018-09-25T05:04:57.833Z,86.50
2018-09-25T05:07:32.089Z,86.60
2018-09-25T05:10:06.030Z,87.10
2018-09-25T05:12:44.375Z,87.10
2018-09-25T05:15:18.450Z,87.60
2018-09-25T05:17:52.628Z,87.10
2018-09-25T05:20:26.726Z,87.50
2018-09-25T05:23:02.281Z,87.70
2018-09-25T05:25:37.073Z,87.90
2018-09-25T05:28:11.744Z,87.30
2018-09-25T05:30:45.997Z,86.90
2018-09-25T05:33:19.935Z,88.00
2018-09-25T05:35:56.058Z,88.20
2018-09-25T05:38:30.097Z,88.30
2018-09-25T05:41:19.964Z,88.70
2018-09-25T05:43:54.245Z,88.80
2018-09-25T05:46:28.371Z,88.70
2018-09-25T05:49:02.364Z,88.90
2018-09-25T05:51:36.416Z,88.90
2018-09-25T05:54:10.905Z,88.90
2018-09-25T05:56:44.808Z,89.00
2018-09-25T05:59:18.836Z,89.00
2018-09-25T06:01:52.656Z,89.10
2018-09-25T06:04:26.608Z,89.20
2018-09-25T06:07:00.761Z,89.60
2018-09-25T06:09:34.811Z,89.70
2018-09-25T06:12:08.733Z,89.40
2018-09-25T06:14:42.764Z,88.70
2018-09-25T06:17:17.008Z,87.90
2018-09-25T06:19:51.007Z,88.80
2018-09-25T06:22:24.913Z,89.20
2018-09-25T06:24:58.860Z,89.60
2018-09-25T06:27:32.901Z,89.60
2018-09-25T06:30:07.064Z,89.20
2018-09-25T06:32:41.112Z,89.40
2018-09-25T06:35:15.120Z,89.80
2018-09-25T06:37:49.016Z,90.10
2018-09-25T06:40:22.997Z,90.20
2018-09-25T06:42:57.122Z,90.50
2018-09-25T06:45:31.134Z,89.80
2018-09-25T06:48:05.032Z,90.40
2018-09-25T06:50:38.991Z,91.80
2018-09-25T06:53:12.860Z,94.70
2018-09-25T06:55:46.872Z,94.40
2018-09-25T06:58:21.344Z,91.10
2018-09-25T07:00:55.471Z,91.30
2018-09-25T07:03:29.360Z,93.50
2018-09-25T07:06:03.342Z,93.60
2018-09-25T07:08:39.701Z,90.50
2018-09-25T07:11:13.631Z,84.80
2018-09-25T07:13:47.546Z,92.10
2018-09-25T07:16:21.478Z,95.30
2018-09-25T07:18:55.751Z,94.10
2018-09-25T07:21:30.056Z,92.90
2018-09-25T07:24:04.182Z,88.90
2018-09-25T07:26:38.191Z,86.90
2018-09-25T07:29:12.607Z,87.90
2018-09-25T07:31:46.681Z,88.00
2018-09-25T07:34:20.730Z,85.00
2018-09-25T07:36:54.766Z,93.10
2018-09-25T07:39:28.682Z,89.90
2018-09-25T07:42:02.865Z,87.70
2018-09-25T07:44:36.980Z,87.30
2018-09-25T07:47:11.037Z,88.50
2018-09-25T07:49:45.211Z,85.20
2018-09-25T07:52:19.088Z,83.70
2018-09-25T07:54:53.004Z,83.20
2018-09-25T07:57:27.055Z,82.30
2018-09-25T08:00:00.942Z,84.90
2018-09-25T08:02:34.980Z,80.60
2018-09-25T08:05:09.164Z,82.10
2018-09-25T08:07:43.181Z,80.20
2018-09-25T08:10:17.314Z,78.50
2018-09-25T08:12:51.322Z,78.30
2018-09-25T08:15:25.439Z,79.80
2018-09-25T08:17:59.524Z,78.80
2018-09-25T08:20:33.659Z,76.10
2018-09-25T08:23:07.813Z,75.70
2018-09-25T08:25:41.991Z,76.50
2018-09-25T08:28:15.840Z,84.60
2018-09-25T08:30:50.916Z,78.00
2018-09-25T08:33:25.243Z,81.30
2018-09-25T08:35:59.208Z,77.30
2018-09-25T08:38:33.283Z,81.80
2018-09-25T08:41:07.281Z,75.30
2018-09-25T08:43:41.239Z,75.70
2018-09-25T08:46:15.278Z,78.90
2018-09-25T08:48:49.287Z,79.10
2018-09-25T08:51:23.239Z,81.50
2018-09-25T08:53:57.348Z,84.10
2018-09-25T08:56:31.499Z,82.50
2018-09-25T08:59:05.570Z,81.60
2018-09-25T09:01:39.643Z,78.50
2018-09-25T09:04:13.889Z,79.20
2018-09-25T09:06:47.909Z,77.20
2018-09-25T09:09:21.878Z,77.20
2018-09-25T09:11:56.102Z,75.10
2018-09-25T09:14:30.155Z,74.00
2018-09-25T09:17:04.159Z,75.50
2018-09-25T09:19:38.123Z,76.80
2018-09-25T09:22:12.494Z,77.80
2018-09-25T09:24:46.584Z,76.00
2018-09-25T09:27:20.747Z,74.30
2018-09-25T09:29:54.607Z,76.00
2018-09-25T09:32:28.865Z,74.70
2018-09-25T09:35:02.864Z,78.80
2018-09-25T09:37:37.042Z,74.90
2018-09-25T09:40:14.666Z,74.30
2018-09-25T09:42:48.684Z,73.80
2018-09-25T09:45:22.692Z,75.10
2018-09-25T09:47:56.627Z,76.80
2018-09-25T09:50:30.812Z,77.30
2018-09-25T09:53:04.827Z,76.10
2018-09-25T09:55:39.029Z,75.10
2018-09-25T09:58:13.042Z,77.80
2018-09-25T10:00:47.139Z,76.30
2018-09-25T10:03:21.075Z,76.60
2018-09-25T10:05:55.428Z,74.20
2018-09-25T10:08:29.651Z,73.70
2018-09-25T10:11:03.807Z,72.10
2018-09-25T10:13:37.915Z,73.50
2018-09-25T10:16:11.939Z,72.20
2018-09-25T10:18:46.201Z,72.50
2018-09-25T10:21:20.372Z,72.60
2018-09-25T10:23:54.278Z,72.20
2018-09-25T10:26:28.356Z,72.90
2018-09-25T10:29:02.201Z,74.00
2018-09-25T10:31:36.404Z,76.40
2018-09-25T10:34:10.341Z,73.80
2018-09-25T10:36:44.694Z,74.30
2018-09-25T10:39:18.629Z,71.70
2018-09-25T10:41:52.588Z,74.90
2018-09-25T10:44:26.693Z,69.40
2018-09-25T10:47:00.998Z,69.70
2018-09-25T10:49:35.069Z,69.30
2018-09-25T10:52:09.225Z,71.80
2018-09-25T10:54:43.044Z,69.70
2018-09-25T10:57:17.146Z,67.40
2018-09-25T10:59:50.988Z,69.20
2018-09-25T11:02:24.998Z,70.10
2018-09-25T11:04:59.181Z,68.60
2018-09-25T11:07:36.792Z,67.10
2018-09-25T11:10:11.153Z,67.40
2018-09-25T11:12:45.042Z,67.60
2018-09-25T11:15:18.928Z,67.90
2018-09-25T11:17:53.127Z,68.50
2018-09-25T11:20:27.187Z,66.60
2018-09-25T11:23:01.190Z,65.40
2018-09-25T11:25:35.256Z,63.70
2018-09-25T11:28:09.299Z,63.90
2018-09-25T11:30:43.403Z,62.10
2018-09-25T11:33:17.465Z,62.40
2018-09-25T11:35:51.519Z,64.10
2018-09-25T11:38:25.579Z,62.50
2018-09-25T11:41:00.142Z,61.10
2018-09-25T11:43:34.273Z,62.60
2018-09-25T11:46:08.995Z,62.90
2018-09-25T11:51:49.273Z,62.90
2018-09-25T11:54:23.282Z,61.30
2018-09-25T11:56:57.258Z,57.30
2018-09-25T11:59:31.239Z,60.90
2018-09-25T12:02:05.371Z,59.60
2018-09-25T12:04:39.555Z,58.80
2018-09-25T12:07:13.533Z,59.40
2018-09-25T12:09:47.579Z,58.40
2018-09-25T12:12:21.786Z,59.10
2018-09-25T12:14:55.939Z,60.10
2018-09-25T12:17:30.264Z,58.70
2018-09-25T12:20:04.304Z,59.50
2018-09-25T12:22:38.478Z,58.90
2018-09-25T12:25:12.760Z,61.40
2018-09-25T12:27:46.768Z,59.90
2018-09-25T12:30:20.865Z,60.30
2018-09-25T12:32:55.218Z,59.30
2018-09-25T12:35:29.361Z,61.10
2018-09-25T12:38:03.523Z,59.70
2018-09-25T12:40:37.944Z,59.10
2018-09-25T12:43:12.061Z,60.20
2018-09-25T12:45:46.274Z,60.90
2018-09-25T12:48:20.371Z,60.90
2018-09-25T12:50:54.245Z,60.40
2018-09-25T12:53:28.180Z,60.50
2018-09-25T12:56:02.255Z,59.50
2018-09-25T12:58:36.349Z,60.10
2018-09-25T13:01:10.650Z,59.00
2018-09-25T13:03:44.581Z,59.80
2018-09-25T13:06:18.572Z,61.60
2018-09-25T13:08:52.515Z,61.10
2018-09-25T13:11:26.902Z,58.90
2018-09-25T13:14:00.739Z,58.50
2018-09-25T13:16:34.820Z,58.50
2018-09-25T13:19:09.240Z,59.30
2018-09-25T13:21:43.139Z,56.70
2018-09-25T13:24:17.381Z,56.70
2018-09-25T13:26:51.497Z,56.70
2018-09-25T13:29:25.720Z,55.10
2018-09-25T13:31:59.749Z,52.30
2018-09-25T13:34:33.709Z,55.30
2018-09-25T13:37:19.613Z,54.10
2018-09-25T13:39:53.752Z,54.10
2018-09-25T13:42:27.971Z,54.20
2018-09-25T13:45:02.292Z,53.80
2018-09-25T13:47:36.496Z,53.90
2018-09-25T13:50:10.655Z,53.10
2018-09-25T13:52:44.925Z,54.30
2018-09-25T13:55:19.241Z,53.10
2018-09-25T13:57:58.100Z,49.90
2018-09-25T14:00:32.808Z,51.20
2018-09-25T14:03:06.820Z,52.50
2018-09-25T14:05:41.012Z,53.70
2018-09-25T14:08:15.226Z,50.80
2018-09-25T14:10:49.374Z,52.30
2018-09-25T14:13:23.777Z,52.10
2018-09-25T14:15:57.966Z,50.40
2018-09-25T14:18:44.294Z,51.40
2018-09-25T14:21:18.362Z,49.10
2018-09-25T14:23:52.469Z,49.40
2018-09-25T14:26:26.412Z,50.60
2018-09-25T14:29:00.203Z,48.30
2018-09-25T14:31:34.185Z,49.50
2018-09-25T14:34:08.154Z,50.60
2018-09-25T14:36:42.253Z,51.90
2018-09-25T14:39:16.203Z,50.70
2018-09-25T14:41:50.384Z,53.60
2018-09-25T14:44:25.304Z,48.30
2018-09-25T14:46:59.404Z,49.80
2018-09-25T14:49:33.775Z,48.10
2018-09-25T14:52:08.165Z,49.10
2018-09-25T14:54:42.477Z,49.10
2018-09-25T14:57:17.103Z,53.50
2018-09-25T14:59:51.212Z,51.40
2018-09-25T15:02:25.636Z,51.70
2018-09-25T15:04:59.869Z,49.70
2018-09-25T15:07:34.102Z,51.60
2018-09-25T15:10:08.150Z,53.70
2018-09-25T15:12:45.738Z,53.40
2018-09-25T15:15:19.940Z,50.70
2018-09-25T15:17:54.005Z,50.00
2018-09-25T15:20:28.250Z,51.60
2018-09-25T15:23:02.394Z,50.70
2018-09-25T15:25:36.597Z,50.10
2018-09-25T15:28:10.809Z,51.10
2018-09-25T15:30:44.826Z,50.90
2018-09-25T15:33:29.052Z,52.90
2018-09-25T15:36:03.204Z,51.40
2018-09-25T15:38:38.102Z,54.20
2018-09-25T15:41:12.528Z,55.30
2018-09-25T15:43:46.612Z,54.20
2018-09-25T15:46:20.743Z,54.50
2018-09-25T15:49:16.003Z,55.60
2018-09-25T15:51:53.064Z,56.40
2018-09-25T15:54:27.261Z,55.10
2018-09-25T15:57:01.345Z,57.20
2018-09-25T15:59:35.286Z,57.70
2018-09-25T16:02:19.927Z,57.50
2018-09-25T16:04:54.007Z,58.10
2018-09-25T16:07:27.950Z,58.50
2018-09-25T16:10:02.165Z,59.00
2018-09-25T16:12:48.371Z,59.60
2018-09-25T16:15:22.408Z,59.80
2018-09-25T16:17:56.701Z,60.20
2018-09-25T16:20:30.794Z,60.50
2018-09-25T16:23:04.883Z,60.70
2018-09-25T16:25:38.978Z,61.00
2018-09-25T16:28:18.436Z,61.40
2018-09-25T16:30:52.373Z,61.70
2018-09-25T16:33:26.415Z,62.00
2018-09-25T16:36:00.372Z,62.30
2018-09-25T16:38:50.906Z,62.50
2018-09-25T16:41:25.109Z,62.60
2018-09-25T16:43:59.291Z,62.70
2018-09-25T16:46:40.715Z,62.70
2018-09-25T16:49:14.832Z,63.00
2018-09-25T16:51:48.949Z,63.20
2018-09-25T16:54:23.356Z,63.40
2018-09-25T16:57:10.016Z,63.60
2018-09-25T16:59:44.368Z,63.80
2018-09-25T17:02:18.273Z,63.90
2018-09-25T17:04:52.672Z,64.00
2018-09-25T17:07:26.623Z,64.10
2018-09-25T17:10:00.633Z,64.40
2018-09-25T17:12:34.795Z,64.60
2018-09-25T17:15:20.749Z,64.70
2018-09-25T17:17:54.865Z,65.00
2018-09-25T17:20:29.133Z,65.30
2018-09-25T17:23:03.415Z,65.10
2018-09-25T17:25:37.489Z,65.20
2018-09-25T17:28:11.786Z,65.60
2018-09-25T17:30:47.887Z,65.30
2018-09-25T17:33:25.285Z,65.50
2018-09-25T17:35:59.273Z,65.80
2018-09-25T17:38:33.605Z,65.80
2018-09-25T17:41:07.882Z,65.80
2018-09-25T17:43:42.249Z,66.00
2018-09-25T17:46:16.240Z,65.90
2018-09-25T17:48:50.323Z,66.00
2018-09-25T17:51:24.577Z,65.90
2018-09-25T17:53:58.482Z,66.40
2018-09-25T17:56:32.503Z,66.20
2018-09-25T17:59:06.514Z,66.40
2018-09-25T18:01:41.050Z,66.80
2018-09-25T18:04:15.074Z,66.90
2018-09-25T18:06:54.185Z,67.00
2018-09-25T18:09:28.168Z,67.00
2018-09-25T18:12:02.198Z,67.10
2018-09-25T18:14:50.647Z,67.30
2018-09-25T18:17:24.609Z,67.50
2018-09-25T18:19:58.813Z,67.70
2018-09-25T18:22:49.028Z,67.70
2018-09-25T18:25:26.360Z,67.80
2018-09-25T18:28:00.452Z,68.00
2018-09-25T18:30:45.537Z,68.10
2018-09-25T18:33:19.899Z,68.20
2018-09-25T18:35:54.103Z,68.40
2018-09-25T18:38:29.314Z,68.40
2018-09-25T18:41:04.025Z,68.70
2018-09-25T18:43:38.953Z,68.80
2018-09-25T18:46:43.535Z,68.70
2018-09-25T18:49:26.737Z,69.10
2018-09-25T18:52:01.663Z,69.10
2018-09-25T18:54:39.013Z,69.50
2018-09-25T18:57:13.654Z,69.60
2018-09-25T18:59:48.452Z,69.70
2018-09-25T19:02:22.885Z,69.70
2018-09-25T19:05:05.592Z,69.90
2018-09-25T19:07:40.380Z,70.00
2018-09-25T19:10:15.290Z,70.10
2018-09-25T19:12:49.887Z,70.40
2018-09-25T19:15:24.895Z,70.60
2018-09-25T19:17:59.737Z,70.80
2018-09-25T19:20:34.479Z,70.70
2018-09-25T19:23:14.271Z,71.00
2018-09-25T19:25:48.268Z,70.90
2018-09-25T19:28:22.521Z,71.00
2018-09-25T19:30:56.578Z,71.20
2018-09-25T19:33:30.677Z,71.40
2018-09-25T19:36:05.763Z,71.60
2018-09-25T19:38:39.980Z,71.50
2018-09-25T19:41:14.001Z,71.50
2018-09-25T19:44:02.022Z,71.70
2018-09-25T19:46:35.790Z,71.70
2018-09-25T19:49:09.950Z,72.20
2018-09-25T19:51:51.640Z,71.90
2018-09-25T19:54:26.368Z,72.00
2018-09-25T19:57:00.480Z,72.20
2018-09-25T19:59:34.666Z,72.00
2018-09-25T20:02:08.913Z,71.80
2018-09-25T20:04:43.141Z,72.50
2018-09-25T20:07:17.000Z,72.50
2018-09-25T20:09:51.173Z,72.70
2018-09-25T20:12:25.220Z,73.00
2018-09-25T20:15:06.447Z,73.10
2018-09-25T20:17:40.597Z,73.10
2018-09-25T20:20:21.678Z,73.10
2018-09-25T20:22:55.766Z,73.30
2018-09-25T20:25:30.180Z,73.40
2018-09-25T20:28:04.490Z,73.40
2018-09-25T20:30:38.502Z,73.50
2018-09-25T20:33:12.832Z,73.40
2018-09-25T20:35:46.972Z,73.60
2018-09-25T20:38:21.057Z,73.60
2018-09-25T20:40:54.941Z,73.80
2018-09-25T20:43:28.901Z,73.60
2018-09-25T20:46:03.176Z,73.20
2018-09-25T20:48:51.851Z,73.80
2018-09-25T20:51:25.849Z,73.70
2018-09-25T20:53:59.962Z,74.20
2018-09-25T20:56:34.060Z,74.40
2018-09-25T20:59:08.093Z,74.20
2018-09-25T21:01:42.258Z,74.20
2018-09-25T21:04:16.317Z,74.40
2018-09-25T21:06:50.634Z,74.50
2018-09-25T21:09:24.857Z,74.60
2018-09-25T21:11:59.067Z,74.70
2018-09-25T21:14:32.872Z,74.40
2018-09-25T21:17:06.813Z,74.90
2018-09-25T21:19:47.330Z,74.90
2018-09-25T21:22:21.243Z,74.80
2018-09-25T21:24:55.779Z,75.20
2018-09-25T21:27:30.099Z,75.00
2018-09-25T21:30:04.135Z,75.30
2018-09-25T21:32:38.036Z,75.40
2018-09-25T21:35:12.227Z,75.40
2018-09-25T21:37:46.293Z,75.20
2018-09-25T21:40:20.790Z,75.30
2018-09-25T21:42:54.882Z,75.00
2018-09-25T21:45:28.964Z,75.30
2018-09-25T21:48:03.296Z,75.50
2018-09-25T21:50:37.531Z,75.70
2018-09-25T21:53:11.410Z,75.40
2018-09-25T21:55:45.768Z,75.80
2018-09-25T21:58:19.539Z,75.80
2018-09-25T22:00:53.780Z,76.00
2018-09-25T22:03:27.752Z,76.30
2018-09-25T22:06:01.702Z,76.00
2018-09-25T22:08:45.559Z,76.30
2018-09-25T22:11:19.524Z,75.80
2018-09-25T22:13:53.738Z,76.10
2018-09-25T22:16:28.001Z,75.90
2018-09-25T22:19:02.239Z,76.30
2018-09-25T22:21:36.496Z,76.50
2018-09-25T22:24:10.670Z,76.40
2018-09-25T22:26:55.605Z,76.50
2018-09-25T22:29:29.631Z,76.40
2018-09-25T22:32:03.935Z,76.50
2018-09-25T22:34:37.800Z,76.80
2018-09-25T22:37:11.731Z,76.80
2018-09-25T22:39:45.782Z,76.50
2018-09-25T22:42:19.779Z,76.60
2018-09-25T22:44:53.748Z,77.00
2018-09-25T22:47:42.144Z,76.70
2018-09-25T22:50:16.247Z,76.60
2018-09-25T22:52:50.206Z,76.90
2018-09-25T22:55:24.284Z,77.10
2018-09-25T22:57:58.286Z,77.20
2018-09-25T23:00:32.189Z,77.00
2018-09-25T23:03:06.293Z,76.90
2018-09-25T23:05:40.444Z,77.00
2018-09-25T23:08:14.857Z,77.20
2018-09-25T23:10:48.664Z,77.20
2018-09-25T23:13:22.686Z,77.20
2018-09-25T23:15:56.753Z,77.30
2018-09-25T23:18:30.559Z,77.60
2018-09-25T23:21:05.204Z,77.40
2018-09-25T23:23:39.175Z,77.30
2018-09-25T23:26:13.182Z,77.60
2018-09-25T23:28:47.205Z,77.60
2018-09-25T23:31:21.246Z,77.40
2018-09-25T23:33:55.275Z,77.60
2018-09-25T23:36:29.291Z,77.40
2018-09-25T23:39:02.317Z,77.90
2018-09-25T23:41:37.513Z,78.00
2018-09-25T23:44:12.342Z,78.00
2018-09-25T23:46:47.592Z,77.90
2018-09-25T23:49:23.728Z,77.80
2018-09-25T23:51:58.541Z,77.80
2018-09-25T23:54:36.411Z,77.80
2018-09-25T23:57:12.583Z,77.90
2018-09-25T23:59:46.546Z,78.20
